Time,TemperatureF,DewpointF,PressureIn,WindDirection,WindDirectionDegrees,WindSpeedMPH,WindSpeedGustMPH,Humidity,HourlyPrecipIn,Conditions,Clouds,dailyrainin,SoftwareType,DateUTC
2013-02-24 00:00:00,33.4,30.5,29.89,NNW,338,2.3,2.3,89,0.00,RA,OVC,0.00,WeatherDisplay:10.37,2013-02-24 05:00:00,
2013-02-24 00:05:00,33.3,29.8,29.89,NW,315,2.2,4.6,87,0.00,RA,OVC,0.00,WeatherDisplay:10.37,2013-02-24 05:05:00,
2013-02-24 00:10:00,33.3,29.8,29.89,WNW,292,3.0,3.5,87,0.00,,OVC,0.00,WeatherDisplay:10.37,2013-02-24 05:10:00,
2013-02-24 00:15:00,33.1,29.7,29.89,WNW,292,0.7,2.3,87,0.00,,OVC,0.00,WeatherDisplay:10.37,2013-02-24 05:15:00,
2013-02-24 00:20:00,33.1,29.7,29.89,West,270,3.3,4.6,87,0.00,,OVC,0.00,WeatherDisplay:10.37,2013-02-24 05:20:00,
2013-02-24 00:25:00,32.9,29.2,29.89,WNW,292,3.4,4.2,86,0.00,,OVC,0.00,WeatherDisplay:10.37,2013-02-24 05:25:00,
2013-02-24 00:30:00,32.9,28.6,29.89,WNW,292,2.3,2.3,84,0.00,,OVC,0.00,WeatherDisplay:10.37,2013-02-24 05:30:00,
2013-02-24 00:35:00,32.9,28.9,29.89,WNW,292,1.9,2.3,85,0.00,,OVC,0.00,WeatherDisplay:10.37,2013-02-24 05:35:00,
2013-02-24 00:40:00,32.9,28.9,29.89,WNW,292,1.7,2.3,85,0.00,,OVC,0.00,WeatherDisplay:10.37,2013-02-24 05:40:00,
2013-02-24 00:45:00,32.9,28.9,29.89,West,270,3.6,4.6,85,0.00,,OVC,0.00,WeatherDisplay:10.37,2013-02-24 05:45:00,
2013-02-24 00:50:00,32.7,28.7,29.89,West,270,1.1,2.2,85,0.00,,OVC,0.00,WeatherDisplay:10.37,2013-02-24 05:50:00,
2013-02-24 00:55:00,32.7,28.7,29.89,West,270,0.0,0.0,85,0.00,,OVC,0.00,WeatherDisplay:10.37,2013-02-24 05:55:00,
2013-02-24 01:00:00,32.7,29.0,29.89,West,270,0.3,1.1,86,0.00,,OVC,0.00,WeatherDisplay:10.37,2013-02-24 06:00:00,
2013-02-24 01:05:00,32.5,28.8,29.89,West,270,2.0,2.3,86,0.00,,OVC,0.00,WeatherDisplay:10.37,2013-02-24 06:05:00,
2013-02-24 01:10:00,32.5,29.1,29.89,West,270,0.0,0.0,87,0.00,,OVC,0.00,WeatherDisplay:10.37,2013-02-24 06:10:00,
2013-02-24 01:15:00,32.5,29.1,29.89,West,270,0.0,0.0,87,0.00,,OVC,0.00,WeatherDisplay:10.37,2013-02-24 06:15:00,
2013-02-24 01:20:00,32.5,29.3,29.89,West,270,0.0,0.0,88,0.00,,OVC,0.00,WeatherDisplay:10.37,2013-02-24 06:20:00,
2013-02-24 01:25:00,32.4,29.2,29.88,West,270,0.0,0.0,88,0.00,,OVC,0.00,WeatherDisplay:10.37,2013-02-24 06:25:00,
2013-02-24 01:30:00,32.4,29.5,29.88,West,270,0.0,0.0,89,0.00,,OVC,0.00,WeatherDisplay:10.37,2013-02-24 06:30:00,
2013-02-24 01:35:00,32.4,29.5,29.88,West,270,0.0,0.0,89,0.00,,OVC,0.00,WeatherDisplay:10.37,2013-02-24 06:35:00,
2013-02-24 01:41:00,32.2,29.6,29.88,West,270,0.0,0.0,90,0.00,,OVC,0.00,WeatherDisplay:10.37,2013-02-24 06:41:00,
2013-02-24 01:45:00,32.2,29.6,29.88,West,270,0.0,0.0,90,0.00,,OVC,0.00,WeatherDisplay:10.37,2013-02-24 06:45:00,
2013-02-24 01:51:00,32.2,29.6,29.88,West,270,0.0,0.0,90,0.00,,OVC,0.00,WeatherDisplay:10.37,2013-02-24 06:51:00,
2013-02-24 01:56:00,32.0,29.4,29.88,West,270,0.0,0.0,90,0.00,,OVC,0.00,WeatherDisplay:10.37,2013-02-24 06:56:00,
2013-02-24 02:01:00,32.0,29.4,29.88,West,270,0.0,0.0,90,0.00,,OVC,0.00,WeatherDisplay:10.37,2013-02-24 07:01:00,
2013-02-24 02:06:00,32.0,29.4,29.88,West,270,0.0,0.0,90,0.00,,OVC,0.00,WeatherDisplay:10.37,2013-02-24 07:06:00,
2013-02-24 02:11:00,32.0,29.4,29.88,West,270,0.0,0.0,90,0.00,,OVC,0.00,WeatherDisplay:10.37,2013-02-24 07:11:00,
2013-02-24 02:16:00,32.0,29.4,29.88,West,270,0.0,0.0,90,0.00,,OVC,0.00,WeatherDisplay:10.37,2013-02-24 07:16:00,
2013-02-24 02:21:00,32.0,29.4,29.88,West,270,0.0,0.0,90,0.00,,OVC,0.00,WeatherDisplay:10.37,2013-02-24 07:21:00,
2013-02-24 02:26:00,32.0,29.4,29.87,West,270,0.0,0.0,90,0.00,,OVC,0.00,WeatherDisplay:10.37,2013-02-24 07:26:00,
2013-02-24 02:31:00,32.0,29.4,29.87,West,270,0.0,0.0,90,0.00,,OVC,0.00,WeatherDisplay:10.37,2013-02-24 07:31:00,
2013-02-24 02:36:00,32.0,29.4,29.86,West,270,0.0,0.0,90,0.00,,OVC,0.00,WeatherDisplay:10.37,2013-02-24 07:36:00,
2013-02-24 02:41:00,32.0,29.4,29.86,West,270,0.0,0.0,90,0.00,,OVC,0.00,WeatherDisplay:10.37,2013-02-24 07:41:00,
2013-02-24 02:46:00,32.0,29.4,29.86,West,270,0.0,0.0,90,0.00,,OVC,0.00,WeatherDisplay:10.37,2013-02-24 07:46:00,
2013-02-24 02:51:00,32.0,29.4,29.86,West,270,0.0,0.0,90,0.00,,OVC,0.00,WeatherDisplay:10.37,2013-02-24 07:51:00,
2013-02-24 02:56:00,32.0,29.4,29.86,West,270,0.0,0.0,90,0.00,,OVC,0.00,WeatherDisplay:10.37,2013-02-24 07:56:00,
2013-02-24 03:01:00,32.0,29.7,29.86,West,270,0.0,0.0,91,0.00,,OVC,0.00,WeatherDisplay:10.37,2013-02-24 08:01:00,
2013-02-24 03:06:00,31.6,29.3,29.86,West,270,0.2,2.3,91,0.00,,OVC,0.00,WeatherDisplay:10.37,2013-02-24 08:06:00,
2013-02-24 03:11:00,31.6,29.3,29.86,West,270,0.0,0.0,91,0.00,,OVC,0.00,WeatherDisplay:10.37,2013-02-24 08:11:00,
2013-02-24 03:16:00,31.6,29.3,29.87,West,270,0.9,2.3,91,0.00,,OVC,0.00,WeatherDisplay:10.37,2013-02-24 08:16:00,
2013-02-24 03:21:00,31.6,28.7,29.87,West,270,1.6,2.3,89,0.00,,OVC,0.00,WeatherDisplay:10.37,2013-02-24 08:21:00,
2013-02-24 03:26:00,31.6,28.5,29.87,West,270,0.2,1.1,88,0.00,,OVC,0.00,WeatherDisplay:10.37,2013-02-24 08:26:00,
2013-02-24 03:31:00,31.6,28.5,29.87,West,270,1.6,1.7,88,0.00,,OVC,0.00,WeatherDisplay:10.37,2013-02-24 08:31:00,
2013-02-24 03:36:00,31.6,28.5,29.87,West,270,0.0,0.0,88,0.00,,OVC,0.00,WeatherDisplay:10.37,2013-02-24 08:36:00,
2013-02-24 03:41:00,31.8,28.4,29.87,West,270,0.0,0.0,87,0.00,,OVC,0.00,WeatherDisplay:10.37,2013-02-24 08:41:00,
2013-02-24 03:46:00,31.8,28.4,29.87,West,270,0.0,0.0,87,0.00,,OVC,0.00,WeatherDisplay:10.37,2013-02-24 08:46:00,
2013-02-24 03:51:00,31.8,28.4,29.87,West,270,0.0,0.0,87,0.00,,OVC,0.00,WeatherDisplay:10.37,2013-02-24 08:51:00,
2013-02-24 03:56:00,31.8,28.4,29.87,West,270,0.0,0.0,87,0.00,,OVC,0.00,WeatherDisplay:10.37,2013-02-24 08:56:00,
2013-02-24 04:01:00,31.8,28.1,29.88,West,270,0.0,0.0,86,0.00,,OVC,0.00,WeatherDisplay:10.37,2013-02-24 09:01:00,
2013-02-24 04:06:00,31.8,28.4,29.88,West,270,0.0,0.0,87,0.00,,OVC,0.00,WeatherDisplay:10.37,2013-02-24 09:06:00,
2013-02-24 04:11:00,31.6,27.9,29.88,West,270,0.0,0.0,86,0.00,,OVC,0.00,WeatherDisplay:10.37,2013-02-24 09:11:00,
2013-02-24 04:16:00,31.6,28.2,29.87,West,270,0.0,0.0,87,0.00,,OVC,0.00,WeatherDisplay:10.37,2013-02-24 09:16:00,
2013-02-24 04:21:00,31.6,28.2,29.87,West,270,0.0,0.0,87,0.00,,OVC,0.00,WeatherDisplay:10.37,2013-02-24 09:21:00,
2013-02-24 04:26:00,31.5,27.8,29.87,West,270,0.0,0.0,86,0.00,,OVC,0.00,WeatherDisplay:10.37,2013-02-24 09:26:00,
2013-02-24 04:31:00,31.5,28.1,29.87,West,270,0.0,0.0,87,0.00,,OVC,0.00,WeatherDisplay:10.37,2013-02-24 09:31:00,
2013-02-24 04:36:00,31.5,28.1,29.86,West,270,0.0,0.0,87,0.00,,OVC,0.00,WeatherDisplay:10.37,2013-02-24 09:36:00,
2013-02-24 04:41:00,31.5,28.4,29.86,West,270,0.0,0.0,88,0.00,,OVC,0.00,WeatherDisplay:10.37,2013-02-24 09:41:00,
2013-02-24 04:46:00,31.5,28.4,29.86,West,270,0.0,0.0,88,0.00,,OVC,0.00,WeatherDisplay:10.37,2013-02-24 09:46:00,
2013-02-24 04:51:00,31.3,27.9,29.87,West,270,0.0,0.0,87,0.00,,OVC,0.00,WeatherDisplay:10.37,2013-02-24 09:51:00,
2013-02-24 04:56:00,31.3,27.9,29.87,West,270,0.0,0.0,87,0.00,,OVC,0.00,WeatherDisplay:10.37,2013-02-24 09:56:00,
2013-02-24 05:01:00,31.3,27.9,29.86,West,270,0.0,0.0,87,0.00,,OVC,0.00,WeatherDisplay:10.37,2013-02-24 10:01:00,
2013-02-24 05:06:00,31.3,28.2,29.86,West,270,0.0,0.0,88,0.00,,OVC,0.00,WeatherDisplay:10.37,2013-02-24 10:06:00,
2013-02-24 05:11:00,31.3,28.2,29.86,West,270,0.0,0.0,88,0.00,,OVC,0.00,WeatherDisplay:10.37,2013-02-24 10:11:00,
2013-02-24 05:16:00,31.3,28.2,29.87,West,270,0.0,0.0,88,0.00,,OVC,0.00,WeatherDisplay:10.37,2013-02-24 10:16:00,
2013-02-24 05:21:00,31.1,28.0,29.87,West,270,0.0,0.0,88,0.00,,OVC,0.00,WeatherDisplay:10.37,2013-02-24 10:21:00,
2013-02-24 05:26:00,31.1,28.2,29.86,West,270,0.0,0.0,89,0.00,,OVC,0.00,WeatherDisplay:10.37,2013-02-24 10:26:00,
2013-02-24 05:31:00,31.1,28.2,29.86,West,270,0.0,0.0,89,0.00,,OVC,0.00,WeatherDisplay:10.37,2013-02-24 10:31:00,
2013-02-24 05:36:00,31.1,28.2,29.86,West,270,0.0,0.0,89,0.00,,OVC,0.00,WeatherDisplay:10.37,2013-02-24 10:36:00,
2013-02-24 05:41:00,30.9,28.3,29.86,West,270,0.0,0.0,90,0.00,,OVC,0.00,WeatherDisplay:10.37,2013-02-24 10:41:00,
2013-02-24 05:46:00,30.9,28.3,29.86,West,270,0.0,0.0,90,0.00,,OVC,0.00,WeatherDisplay:10.37,2013-02-24 10:46:00,
2013-02-24 05:51:00,30.9,28.3,29.86,West,270,0.0,0.0,90,0.00,,OVC,0.00,WeatherDisplay:10.37,2013-02-24 10:51:00,
2013-02-24 05:56:00,30.9,28.0,29.86,West,270,0.0,0.0,89,0.00,,OVC,0.00,WeatherDisplay:10.37,2013-02-24 10:56:00,
2013-02-24 06:01:00,30.9,28.0,29.87,West,270,0.0,0.0,89,0.00,,OVC,0.00,WeatherDisplay:10.37,2013-02-24 11:01:00,
2013-02-24 06:06:00,30.9,28.0,29.87,West,270,0.0,0.0,89,0.00,,OVC,0.00,WeatherDisplay:10.37,2013-02-24 11:06:00,
2013-02-24 06:11:00,30.9,28.3,29.87,West,270,0.0,0.0,90,0.00,,OVC,0.00,WeatherDisplay:10.37,2013-02-24 11:11:00,
2013-02-24 06:16:00,30.9,28.3,29.87,West,270,0.0,0.0,90,0.00,,OVC,0.00,WeatherDisplay:10.37,2013-02-24 11:16:00,
2013-02-24 06:21:00,30.9,28.3,29.87,West,270,0.0,0.0,90,0.00,,OVC,0.00,WeatherDisplay:10.37,2013-02-24 11:21:00,
2013-02-24 06:26:00,30.6,28.3,29.87,West,270,0.3,1.7,91,0.00,,OVC,0.00,WeatherDisplay:10.37,2013-02-24 11:26:00,
2013-02-24 06:31:00,30.6,27.5,29.87,West,270,0.9,1.7,88,0.00,,OVC,0.00,WeatherDisplay:10.37,2013-02-24 11:31:00,
2013-02-24 06:36:00,30.6,27.2,29.87,West,270,1.1,1.1,87,0.00,,OVC,0.00,WeatherDisplay:10.37,2013-02-24 11:36:00,
2013-02-24 06:41:00,30.7,27.0,29.87,West,270,0.0,0.0,86,0.00,,OVC,0.00,WeatherDisplay:10.37,2013-02-24 11:41:00,
2013-02-24 06:46:00,30.9,27.2,29.87,West,270,0.0,0.0,86,0.00,,OVC,0.00,WeatherDisplay:10.37,2013-02-24 11:46:00,
2013-02-24 06:51:00,30.9,27.2,29.87,West,270,0.0,0.0,86,0.00,,OVC,0.00,WeatherDisplay:10.37,2013-02-24 11:51:00,
2013-02-24 06:56:00,30.9,26.9,29.87,West,270,1.5,1.5,85,0.00,,OVC,0.00,WeatherDisplay:10.37,2013-02-24 11:56:00,
2013-02-24 07:01:00,30.9,26.9,29.87,West,270,1.8,2.3,85,0.00,,OVC,0.00,WeatherDisplay:10.37,2013-02-24 12:01:00,
2013-02-24 07:06:00,31.3,26.7,29.87,West,270,2.0,2.3,83,0.00,,OVC,0.00,WeatherDisplay:10.37,2013-02-24 12:06:00,
2013-02-24 07:11:00,31.3,26.7,29.87,West,270,2.0,2.0,83,0.00,,OVC,0.00,WeatherDisplay:10.37,2013-02-24 12:11:00,
2013-02-24 07:16:00,31.5,26.6,29.88,West,270,1.9,2.3,82,0.00,,OVC,0.00,WeatherDisplay:10.37,2013-02-24 12:16:00,
2013-02-24 07:21:00,31.6,26.7,29.88,West,270,2.0,2.2,82,0.00,,OVC,0.00,WeatherDisplay:10.37,2013-02-24 12:21:00,
2013-02-24 07:26:00,31.8,26.9,29.88,West,270,2.0,2.3,82,0.00,,OVC,0.00,WeatherDisplay:10.37,2013-02-24 12:26:00,
2013-02-24 07:32:00,31.8,26.9,29.88,West,270,1.7,2.3,82,0.00,,OVC,0.00,WeatherDisplay:10.37,2013-02-24 12:32:00,
2013-02-24 07:37:00,32.0,26.8,29.88,West,270,2.2,2.3,81,0.00,,OVC,0.00,WeatherDisplay:10.37,2013-02-24 12:37:00,
2013-02-24 07:42:00,32.2,26.7,29.88,West,270,2.5,4.6,80,0.00,,OVC,0.00,WeatherDisplay:10.37,2013-02-24 12:42:00,
2013-02-24 07:47:00,32.4,26.9,29.88,West,270,2.0,2.3,80,0.00,,OVC,0.00,WeatherDisplay:10.37,2013-02-24 12:47:00,
2013-02-24 07:52:00,32.4,26.3,29.88,West,270,4.1,5.8,78,0.00,,OVC,0.00,WeatherDisplay:10.37,2013-02-24 12:52:00,
2013-02-24 07:57:00,32.5,26.4,29.88,West,270,2.5,3.5,78,0.00,,OVC,0.00,WeatherDisplay:10.37,2013-02-24 12:57:00,
2013-02-24 08:02:00,32.5,26.4,29.89,West,270,4.8,8.3,78,0.00,,OVC,0.00,WeatherDisplay:10.37,2013-02-24 13:02:00,
2013-02-24 08:07:00,32.7,26.3,29.89,WNW,292,3.2,3.5,77,0.00,,OVC,0.00,WeatherDisplay:10.37,2013-02-24 13:07:00,
2013-02-24 08:12:00,32.7,26.0,29.89,West,270,4.4,6.3,76,0.00,,OVC,0.00,WeatherDisplay:10.37,2013-02-24 13:12:00,
2013-02-24 08:17:00,32.7,26.0,29.89,West,270,3.8,5.8,76,0.00,,OVC,0.00,WeatherDisplay:10.37,2013-02-24 13:17:00,
2013-02-24 08:22:00,32.7,26.0,29.89,West,270,2.1,3.5,76,0.00,,OVC,0.00,WeatherDisplay:10.37,2013-02-24 13:22:00,
2013-02-24 08:27:00,32.9,25.8,29.88,NW,315,2.5,2.5,75,0.00,,OVC,0.00,WeatherDisplay:10.37,2013-02-24 13:27:00,
2013-02-24 08:32:00,32.9,25.8,29.88,NW,315,2.6,3.5,75,0.00,,OVC,0.00,WeatherDisplay:10.37,2013-02-24 13:32:00,
2013-02-24 08:37:00,32.9,25.5,29.88,West,270,3.7,4.7,74,0.00,,OVC,0.00,WeatherDisplay:10.37,2013-02-24 13:37:00,
2013-02-24 08:42:00,32.7,25.6,29.88,NNW,338,3.2,4.2,75,0.00,,OVC,0.00,WeatherDisplay:10.37,2013-02-24 13:42:00,
2013-02-24 08:47:00,32.7,25.3,29.88,NW,315,4.2,5.8,74,0.00,,OVC,0.00,WeatherDisplay:10.37,2013-02-24 13:47:00,
2013-02-24 08:52:00,32.9,25.5,29.88,West,270,3.3,4.6,74,0.00,,OVC,0.00,WeatherDisplay:10.37,2013-02-24 13:52:00,
2013-02-24 08:57:00,32.9,25.5,29.88,West,270,3.2,3.5,74,0.00,,OVC,0.00,WeatherDisplay:10.37,2013-02-24 13:57:00,
2013-02-24 09:02:00,32.9,25.2,29.88,West,270,3.6,3.6,73,0.00,,OVC,0.00,WeatherDisplay:10.37,2013-02-24 14:02:00,
2013-02-24 09:07:00,32.9,25.2,29.88,WNW,292,2.5,3.5,73,0.00,,OVC,0.00,WeatherDisplay:10.37,2013-02-24 14:07:00,
2013-02-24 09:12:00,32.9,25.2,29.88,NW,315,4.2,4.7,73,0.00,,OVC,0.00,WeatherDisplay:10.37,2013-02-24 14:12:00,
2013-02-24 09:17:00,33.1,25.4,29.88,West,270,4.1,6.9,73,0.00,,OVC,0.00,WeatherDisplay:10.37,2013-02-24 14:17:00,
2013-02-24 09:22:00,33.1,25.1,29.88,WNW,292,3.6,5.8,72,0.00,,OVC,0.00,WeatherDisplay:10.37,2013-02-24 14:22:00,
2013-02-24 09:27:00,33.1,25.1,29.88,West,270,3.9,5.8,72,0.00,,OVC,0.00,WeatherDisplay:10.37,2013-02-24 14:27:00,
2013-02-24 09:32:00,33.1,25.4,29.88,West,270,3.7,4.2,73,0.00,,OVC,0.00,WeatherDisplay:10.37,2013-02-24 14:32:00,
2013-02-24 09:37:00,33.1,25.4,29.88,WNW,292,6.3,6.9,73,0.00,,OVC,0.00,WeatherDisplay:10.37,2013-02-24 14:37:00,
2013-02-24 09:42:00,33.1,25.4,29.88,WNW,292,6.3,6.3,73,0.00,,OVC,0.00,WeatherDisplay:10.37,2013-02-24 14:42:00,
2013-02-24 09:48:00,32.9,25.8,29.88,NW,315,4.4,5.8,75,0.00,,OVC,0.00,WeatherDisplay:10.37,2013-02-24 14:48:00,
2013-02-24 09:53:00,32.9,26.2,29.88,West,270,3.5,5.8,76,0.00,,OVC,0.00,WeatherDisplay:10.37,2013-02-24 14:53:00,
2013-02-24 09:58:00,32.7,26.0,29.88,WNW,292,3.3,5.8,76,0.00,,OVC,0.00,WeatherDisplay:10.37,2013-02-24 14:58:00,
2013-02-24 10:03:00,32.5,26.1,29.88,West,270,4.5,5.8,77,0.00,,OVC,0.00,WeatherDisplay:10.37,2013-02-24 15:03:00,
2013-02-24 10:08:00,32.5,26.1,29.88,West,270,2.9,4.6,77,0.00,,OVC,0.00,WeatherDisplay:10.37,2013-02-24 15:08:00,
2013-02-24 10:13:00,32.9,26.5,29.88,West,270,1.7,3.5,77,0.00,,OVC,0.00,WeatherDisplay:10.37,2013-02-24 15:13:00,
2013-02-24 10:18:00,33.3,26.5,29.88,West,270,1.6,2.7,76,0.00,,OVC,0.00,WeatherDisplay:10.37,2013-02-24 15:18:00,
2013-02-24 10:23:00,33.6,26.8,29.88,West,270,3.3,3.7,76,0.00,,OVC,0.00,WeatherDisplay:10.37,2013-02-24 15:23:00,
2013-02-24 10:28:00,34.0,26.6,29.88,WNW,292,3.7,4.6,74,0.00,,OVC,0.00,WeatherDisplay:10.37,2013-02-24 15:28:00,
2013-02-24 10:33:00,34.2,26.4,29.88,West,270,3.5,3.7,73,0.00,,OVC,0.00,WeatherDisplay:10.37,2013-02-24 15:33:00,
2013-02-24 10:38:00,35.1,27.0,29.88,NW,315,3.0,3.5,72,0.00,,OVC,0.00,WeatherDisplay:10.37,2013-02-24 15:38:00,
2013-02-24 10:43:00,34.7,26.3,29.88,WNW,292,4.2,4.6,71,0.00,,OVC,0.00,WeatherDisplay:10.37,2013-02-24 15:43:00,
2013-02-24 10:48:00,34.3,25.9,29.87,West,270,4.1,4.6,71,0.00,,OVC,0.00,WeatherDisplay:10.37,2013-02-24 15:48:00,
2013-02-24 10:53:00,33.8,25.4,29.87,NW,315,5.3,6.9,71,0.00,,OVC,0.00,WeatherDisplay:10.37,2013-02-24 15:53:00,
2013-02-24 10:58:00,33.6,25.5,29.87,WNW,292,3.9,5.3,72,0.00,,OVC,0.00,WeatherDisplay:10.37,2013-02-24 15:58:00,
2013-02-24 11:03:00,33.4,25.3,29.87,WNW,292,5.5,5.5,72,0.00,,OVC,0.00,WeatherDisplay:10.37,2013-02-24 16:03:00,
2013-02-24 11:08:00,33.4,25.3,29.87,WNW,292,5.7,5.8,72,0.00,,OVC,0.00,WeatherDisplay:10.37,2013-02-24 16:08:00,
2013-02-24 11:13:00,33.4,25.3,29.88,West,270,6.5,6.9,72,0.00,,OVC,0.00,WeatherDisplay:10.37,2013-02-24 16:13:00,
2013-02-24 11:18:00,33.8,26.1,29.88,WNW,292,4.2,6.9,73,0.00,,OVC,0.00,WeatherDisplay:10.37,2013-02-24 16:18:00,
2013-02-24 11:23:00,33.8,26.1,29.88,NW,315,4.4,4.6,73,0.00,,OVC,0.00,WeatherDisplay:10.37,2013-02-24 16:23:00,
2013-02-24 11:28:00,33.6,25.9,29.88,NW,315,4.4,5.8,73,0.00,,OVC,0.00,WeatherDisplay:10.37,2013-02-24 16:28:00,
2013-02-24 11:33:00,34.2,26.4,29.88,West,270,3.4,4.6,73,0.00,,OVC,0.00,WeatherDisplay:10.37,2013-02-24 16:33:00,
2013-02-24 11:38:00,34.5,26.4,29.88,WNW,292,4.4,6.3,72,0.00,,OVC,0.00,WeatherDisplay:10.37,2013-02-24 16:38:00,
2013-02-24 11:43:00,34.0,25.9,29.88,WNW,292,5.5,6.9,72,0.00,,OVC,0.00,WeatherDisplay:10.37,2013-02-24 16:43:00,
2013-02-24 11:48:00,33.6,26.2,29.88,West,270,6.2,8.1,74,0.00,,OVC,0.00,WeatherDisplay:10.37,2013-02-24 16:48:00,
2013-02-24 11:53:00,34.0,26.3,29.88,NW,315,4.9,6.9,73,0.00,,OVC,0.00,WeatherDisplay:10.37,2013-02-24 16:53:00,
2013-02-24 11:58:00,33.6,25.9,29.88,West,270,4.9,6.9,73,0.00,,OVC,0.00,WeatherDisplay:10.37,2013-02-24 16:58:00,
2013-02-24 12:03:00,33.8,26.1,29.88,West,270,5.5,6.9,73,0.00,,OVC,0.00,WeatherDisplay:10.37,2013-02-24 17:03:00,
2013-02-24 12:08:00,33.8,26.1,29.88,WNW,292,5.6,5.8,73,0.00,,OVC,0.00,WeatherDisplay:10.37,2013-02-24 17:08:00,
2013-02-24 12:13:00,33.6,25.9,29.88,West,270,6.4,8.8,73,0.00,,OVC,0.00,WeatherDisplay:10.37,2013-02-24 17:13:00,
2013-02-24 12:18:00,33.3,25.6,29.88,NW,315,5.9,6.9,73,0.00,,OVC,0.00,WeatherDisplay:10.37,2013-02-24 17:18:00,
2013-02-24 12:23:00,33.4,25.7,29.88,NW,315,4.6,5.8,73,0.00,,OVC,0.00,WeatherDisplay:10.37,2013-02-24 17:23:00,
2013-02-24 12:28:00,33.6,25.9,29.88,WNW,292,4.8,5.8,73,0.00,,OVC,0.00,WeatherDisplay:10.37,2013-02-24 17:28:00,
2013-02-24 12:33:00,33.8,26.1,29.88,WNW,292,5.3,6.9,73,0.00,,OVC,0.00,WeatherDisplay:10.37,2013-02-24 17:33:00,
2013-02-24 12:38:00,34.0,25.9,29.88,West,270,5.6,8.8,72,0.00,,OVC,0.00,WeatherDisplay:10.37,2013-02-24 17:38:00,
2013-02-24 12:43:00,34.0,25.9,29.88,WNW,292,6.3,6.9,72,0.00,,OVC,0.00,WeatherDisplay:10.37,2013-02-24 17:43:00,
2013-02-24 12:48:00,34.0,26.3,29.88,West,270,7.4,9.2,73,0.00,,OVC,0.00,WeatherDisplay:10.37,2013-02-24 17:48:00,
2013-02-24 12:53:00,34.3,26.2,29.88,West,270,4.9,5.8,72,0.00,,OVC,0.00,WeatherDisplay:10.37,2013-02-24 17:53:00,
2013-02-24 12:58:00,34.5,26.4,29.88,West,270,4.8,6.9,72,0.00,,OVC,0.00,WeatherDisplay:10.37,2013-02-24 17:58:00,
2013-02-24 13:03:00,35.1,26.6,29.88,West,270,3.8,5.8,71,0.00,,OVC,0.00,WeatherDisplay:10.37,2013-02-24 18:03:00,
2013-02-24 13:08:00,35.2,26.7,29.88,West,270,3.0,4.6,71,0.00,,OVC,0.00,WeatherDisplay:10.37,2013-02-24 18:08:00,
2013-02-24 13:13:00,34.9,26.8,29.88,West,270,3.9,4.6,72,0.00,,OVC,0.00,WeatherDisplay:10.37,2013-02-24 18:13:00,
2013-02-24 13:18:00,33.1,27.6,29.88,West,270,7.5,9.2,80,0.00,,OVC,0.00,WeatherDisplay:10.37,2013-02-24 18:18:00,
2013-02-24 13:23:00,32.4,28.1,29.88,West,270,6.1,6.9,84,0.00,,OVC,0.00,WeatherDisplay:10.37,2013-02-24 18:23:00,
2013-02-24 13:28:00,32.2,28.5,29.89,West,270,5.5,6.9,86,0.00,,OVC,0.00,WeatherDisplay:10.37,2013-02-24 18:28:00,
2013-02-24 13:33:00,32.0,28.6,29.89,West,270,4.8,5.8,87,0.00,,OVC,0.00,WeatherDisplay:10.37,2013-02-24 18:33:00,
2013-02-24 13:38:00,31.5,28.4,29.89,WNW,292,5.5,6.9,88,0.00,,OVC,0.00,WeatherDisplay:10.37,2013-02-24 18:38:00,
2013-02-24 13:43:00,31.5,28.6,29.89,West,270,5.2,5.8,89,0.00,,OVC,0.00,WeatherDisplay:10.37,2013-02-24 18:43:00,
2013-02-24 13:48:00,31.5,28.9,29.89,West,270,6.7,8.1,90,0.00,,OVC,0.00,WeatherDisplay:10.37,2013-02-24 18:48:00,
2013-02-24 13:53:00,31.8,29.2,29.89,WNW,292,3.1,5.3,90,0.00,,OVC,0.00,WeatherDisplay:10.37,2013-02-24 18:53:00,
2013-02-24 13:58:00,32.0,29.4,29.89,NW,315,3.2,3.5,90,0.00,,OVC,0.00,WeatherDisplay:10.37,2013-02-24 18:58:00,
2013-02-24 14:03:00,32.5,29.9,29.89,NW,315,2.8,3.5,90,0.00,,OVC,0.00,WeatherDisplay:10.37,2013-02-24 19:03:00,
2013-02-24 14:08:00,32.5,29.3,29.89,West,270,4.4,5.8,88,0.00,,OVC,0.00,WeatherDisplay:10.37,2013-02-24 19:08:00,
2013-02-24 14:13:00,32.0,29.4,29.89,West,270,3.9,4.7,90,0.00,,OVC,0.00,WeatherDisplay:10.37,2013-02-24 19:13:00,
2013-02-24 14:18:00,32.7,30.1,29.89,West,270,2.9,5.8,90,0.00,,OVC,0.00,WeatherDisplay:10.37,2013-02-24 19:18:00,
2013-02-24 14:23:00,32.5,29.9,29.89,West,270,4.2,4.7,90,0.00,,OVC,0.00,WeatherDisplay:10.37,2013-02-24 19:23:00,
2013-02-24 14:28:00,32.9,30.0,29.89,West,270,3.7,4.6,89,0.00,,OVC,0.00,WeatherDisplay:10.37,2013-02-24 19:28:00,
2013-02-24 14:33:00,32.9,29.7,29.89,West,270,4.0,4.6,88,0.00,,OVC,0.00,WeatherDisplay:10.37,2013-02-24 19:33:00,
2013-02-24 14:38:00,33.4,30.5,29.89,WNW,292,3.1,3.5,89,0.00,,OVC,0.00,WeatherDisplay:10.37,2013-02-24 19:38:00,
2013-02-24 14:43:00,33.4,30.2,29.89,West,270,4.3,5.8,88,0.00,,OVC,0.00,WeatherDisplay:10.37,2013-02-24 19:43:00,
2013-02-24 14:48:00,33.4,30.2,29.89,West,270,3.5,4.6,88,0.00,,OVC,0.00,WeatherDisplay:10.37,2013-02-24 19:48:00,
2013-02-24 14:53:00,33.3,30.4,29.89,WNW,292,4.1,4.6,89,0.00,,OVC,0.00,WeatherDisplay:10.37,2013-02-24 19:53:00,
2013-02-24 14:58:00,32.7,29.5,29.89,West,270,4.1,4.6,88,0.00,,OVC,0.00,WeatherDisplay:10.37,2013-02-24 19:58:00,
2013-02-24 15:03:00,32.5,29.9,29.90,West,270,4.9,6.3,90,0.00,,OVC,0.00,WeatherDisplay:10.37,2013-02-24 20:03:00,
2013-02-24 15:08:00,32.7,29.8,29.90,WNW,292,3.4,3.5,89,0.00,,OVC,0.00,WeatherDisplay:10.37,2013-02-24 20:08:00,
2013-02-24 15:13:00,32.5,29.6,29.90,WNW,292,4.2,4.6,89,0.00,,OVC,0.00,WeatherDisplay:10.37,2013-02-24 20:13:00,
2013-02-24 15:18:00,32.2,29.6,29.90,WNW,292,5.9,6.9,90,0.00,,OVC,0.00,WeatherDisplay:10.37,2013-02-24 20:18:00,
2013-02-24 15:23:00,32.0,29.4,29.91,WNW,292,4.7,5.8,90,0.00,,OVC,0.00,WeatherDisplay:10.37,2013-02-24 20:23:00,
2013-02-24 15:28:00,32.0,29.4,29.91,West,270,2.7,2.7,90,0.00,,OVC,0.00,WeatherDisplay:10.37,2013-02-24 20:28:00,
2013-02-24 15:33:00,32.2,29.6,29.91,West,270,5.4,9.4,90,0.00,,OVC,0.00,WeatherDisplay:10.37,2013-02-24 20:33:00,
2013-02-24 15:38:00,31.6,29.0,29.91,West,270,5.7,8.1,90,0.00,,OVC,0.00,WeatherDisplay:10.37,2013-02-24 20:38:00,
2013-02-24 15:43:00,31.5,29.2,29.91,NW,315,4.4,5.8,91,0.00,,OVC,0.00,WeatherDisplay:10.37,2013-02-24 20:43:00,
2013-02-24 15:48:00,31.5,29.2,29.92,NW,315,5.3,5.8,91,0.00,,OVC,0.00,WeatherDisplay:10.37,2013-02-24 20:48:00,
2013-02-24 15:53:00,31.3,28.7,29.92,WNW,292,4.2,6.9,90,0.00,,OVC,0.00,WeatherDisplay:10.37,2013-02-24 20:53:00,
2013-02-24 15:58:00,31.5,28.9,29.92,NW,315,6.3,6.9,90,0.00,,OVC,0.00,WeatherDisplay:10.37,2013-02-24 20:58:00,
2013-02-24 16:03:00,31.3,28.7,29.92,West,270,5.3,8.1,90,0.00,,OVC,0.00,WeatherDisplay:10.37,2013-02-24 21:03:00,
2013-02-24 16:08:00,31.1,28.8,29.92,WNW,292,4.1,5.8,91,0.00,,OVC,0.00,WeatherDisplay:10.37,2013-02-24 21:08:00,
2013-02-24 16:13:00,30.9,28.9,29.93,NW,315,3.6,5.8,92,0.00,,OVC,0.00,WeatherDisplay:10.37,2013-02-24 21:13:00,
2013-02-24 16:18:00,30.9,28.9,29.93,NW,315,5.1,5.8,92,0.00,,OVC,0.00,WeatherDisplay:10.37,2013-02-24 21:18:00,
2013-02-24 16:24:00,30.9,28.9,29.93,NW,315,3.6,4.6,92,0.00,,OVC,0.00,WeatherDisplay:10.37,2013-02-24 21:24:00,
2013-02-24 16:28:00,30.9,28.6,29.93,WNW,292,5.5,5.8,91,0.00,,OVC,0.00,WeatherDisplay:10.37,2013-02-24 21:28:00,
2013-02-24 16:34:00,30.7,28.4,29.93,WNW,292,3.9,5.8,91,0.00,,OVC,0.00,WeatherDisplay:10.37,2013-02-24 21:34:00,
2013-02-24 16:39:00,30.7,28.7,29.93,West,270,4.8,5.8,92,0.00,,OVC,0.00,WeatherDisplay:10.37,2013-02-24 21:39:00,
2013-02-24 16:44:00,30.6,28.6,29.93,West,270,3.7,4.2,92,0.00,,OVC,0.00,WeatherDisplay:10.37,2013-02-24 21:44:00,
2013-02-24 16:49:00,30.6,28.6,29.94,WNW,292,4.1,5.8,92,0.00,,OVC,0.00,WeatherDisplay:10.37,2013-02-24 21:49:00,
2013-02-24 16:54:00,30.6,28.6,29.94,WNW,292,3.4,5.8,92,0.00,,OVC,0.00,WeatherDisplay:10.37,2013-02-24 21:54:00,
2013-02-24 16:59:00,30.6,28.6,29.94,West,270,2.7,8.1,92,0.00,,OVC,0.00,WeatherDisplay:10.37,2013-02-24 21:59:00,
2013-02-24 17:04:00,30.6,28.6,29.94,WNW,292,3.5,3.5,92,0.00,,OVC,0.00,WeatherDisplay:10.37,2013-02-24 22:04:00,
2013-02-24 17:09:00,30.6,28.8,29.94,WNW,292,2.7,3.5,93,0.00,,OVC,0.00,WeatherDisplay:10.37,2013-02-24 22:09:00,
2013-02-24 17:14:00,30.7,28.9,29.95,NW,315,3.8,3.8,93,0.00,,OVC,0.00,WeatherDisplay:10.37,2013-02-24 22:14:00,
2013-02-24 17:19:00,30.7,28.9,29.95,West,270,3.5,3.5,93,0.00,,OVC,0.00,WeatherDisplay:10.37,2013-02-24 22:19:00,
2013-02-24 17:24:00,30.7,28.9,29.95,WNW,292,3.7,4.7,93,0.00,,OVC,0.00,WeatherDisplay:10.37,2013-02-24 22:24:00,
2013-02-24 17:29:00,30.6,28.8,29.95,West,270,3.5,5.8,93,0.00,,OVC,0.00,WeatherDisplay:10.37,2013-02-24 22:29:00,
2013-02-24 17:34:00,30.6,28.8,29.95,WNW,292,3.1,3.7,93,0.00,,OVC,0.00,WeatherDisplay:10.37,2013-02-24 22:34:00,
2013-02-24 17:39:00,30.4,28.6,29.96,West,270,4.1,5.3,93,0.00,,OVC,0.00,WeatherDisplay:10.37,2013-02-24 22:39:00,
2013-02-24 17:44:00,30.4,28.6,29.96,WSW,248,5.2,5.8,93,0.00,,OVC,0.00,WeatherDisplay:10.37,2013-02-24 22:44:00,
2013-02-24 17:49:00,30.4,28.6,29.96,West,270,4.3,4.3,93,0.00,,OVC,0.00,WeatherDisplay:10.37,2013-02-24 22:49:00,
2013-02-24 17:54:00,30.4,28.6,29.96,WSW,248,4.0,4.7,93,0.00,,OVC,0.00,WeatherDisplay:10.37,2013-02-24 22:54:00,
2013-02-24 17:59:00,30.2,28.4,29.96,West,270,2.3,3.5,93,0.00,,OVC,0.00,WeatherDisplay:10.37,2013-02-24 22:59:00,
2013-02-24 18:04:00,30.2,28.4,29.97,West,270,3.0,3.7,93,0.00,,OVC,0.00,WeatherDisplay:10.37,2013-02-24 23:04:00,
2013-02-24 18:09:00,30.2,28.7,29.97,West,270,2.9,3.5,94,0.00,,OVC,0.00,WeatherDisplay:10.37,2013-02-24 23:09:00,
2013-02-24 18:14:00,30.2,28.7,29.98,West,270,1.7,2.3,94,0.00,,OVC,0.00,WeatherDisplay:10.37,2013-02-24 23:14:00,
2013-02-24 18:19:00,30.0,28.5,29.98,West,270,3.1,4.6,94,0.00,,OVC,0.00,WeatherDisplay:10.37,2013-02-24 23:19:00,
2013-02-24 18:24:00,30.0,28.5,29.98,West,270,2.6,2.6,94,0.00,,OVC,0.00,WeatherDisplay:10.37,2013-02-24 23:24:00,
2013-02-24 18:29:00,30.0,28.5,29.98,West,270,3.7,4.6,94,0.00,,OVC,0.00,WeatherDisplay:10.37,2013-02-24 23:29:00,
2013-02-24 18:34:00,29.8,28.3,29.98,West,270,3.2,3.5,94,0.00,,OVC,0.00,WeatherDisplay:10.37,2013-02-24 23:34:00,
2013-02-24 18:39:00,29.8,28.3,29.98,WNW,292,1.8,2.7,94,0.00,,OVC,0.00,WeatherDisplay:10.37,2013-02-24 23:39:00,
2013-02-24 18:44:00,29.8,28.3,29.98,WNW,292,2.4,2.4,94,0.00,,OVC,0.00,WeatherDisplay:10.37,2013-02-24 23:44:00,
2013-02-24 18:49:00,29.8,28.0,29.99,WNW,292,1.8,2.3,93,0.00,,OVC,0.00,WeatherDisplay:10.37,2013-02-24 23:49:00,
2013-02-24 18:54:00,29.8,28.0,29.99,WNW,292,2.1,2.3,93,0.00,,OVC,0.00,WeatherDisplay:10.37,2013-02-24 23:54:00,
2013-02-24 18:59:00,29.8,28.0,29.99,WNW,292,0.0,0.0,93,0.00,,OVC,0.00,WeatherDisplay:10.37,2013-02-24 23:59:00,
2013-02-24 19:04:00,29.8,28.0,30.00,WNW,292,0.0,0.0,93,0.00,,OVC,0.00,WeatherDisplay:10.37,2013-02-25 00:04:00,
2013-02-24 19:09:00,29.7,27.9,30.00,WNW,292,0.0,0.0,93,0.00,,OVC,0.00,WeatherDisplay:10.37,2013-02-25 00:09:00,
2013-02-24 19:14:00,29.7,27.9,30.00,WNW,292,1.6,2.3,93,0.00,,OVC,0.00,WeatherDisplay:10.37,2013-02-25 00:14:00,
2013-02-24 19:19:00,29.7,27.9,30.00,WNW,292,0.2,1.1,93,0.00,,OVC,0.00,WeatherDisplay:10.37,2013-02-25 00:19:00,
2013-02-24 19:24:00,29.7,27.9,30.00,WNW,292,0.0,0.0,93,0.00,,OVC,0.00,WeatherDisplay:10.37,2013-02-25 00:24:00,
2013-02-24 19:29:00,29.7,27.9,30.00,WNW,292,2.7,2.7,93,0.00,,OVC,0.00,WeatherDisplay:10.37,2013-02-25 00:29:00,
2013-02-24 19:34:00,29.8,27.8,30.00,WNW,292,2.6,3.5,92,0.00,,OVC,0.00,WeatherDisplay:10.37,2013-02-25 00:34:00,
2013-02-24 19:39:00,30.0,27.7,30.00,West,270,1.9,4.6,91,0.00,,OVC,0.00,WeatherDisplay:10.37,2013-02-25 00:39:00,
2013-02-24 19:44:00,30.0,28.0,30.00,West,270,1.6,2.3,92,0.00,,OVC,0.00,WeatherDisplay:10.37,2013-02-25 00:44:00,
2013-02-24 19:49:00,30.0,28.0,30.00,West,270,3.4,3.7,92,0.00,,OVC,0.00,WeatherDisplay:10.37,2013-02-25 00:49:00,
2013-02-24 19:54:00,30.0,27.7,30.00,West,270,3.8,4.6,91,0.00,,OVC,0.00,WeatherDisplay:10.37,2013-02-25 00:54:00,
2013-02-24 19:59:00,30.0,27.7,30.00,West,270,3.9,4.6,91,0.00,,OVC,0.00,WeatherDisplay:10.37,2013-02-25 00:59:00,
2013-02-24 20:04:00,30.2,27.3,30.01,West,270,4.5,5.8,89,0.00,,OVC,0.00,WeatherDisplay:10.37,2013-02-25 01:04:00,
2013-02-24 20:09:00,30.2,27.3,30.01,West,270,4.7,6.9,89,0.00,,OVC,0.00,WeatherDisplay:10.37,2013-02-25 01:09:00,
2013-02-24 20:14:00,30.2,27.3,30.01,West,270,5.0,5.8,89,0.00,,OVC,0.00,WeatherDisplay:10.37,2013-02-25 01:14:00,
2013-02-24 20:19:00,30.2,27.3,30.01,West,270,2.8,3.5,89,0.00,,OVC,0.00,WeatherDisplay:10.37,2013-02-25 01:19:00,
2013-02-24 20:24:00,30.2,27.3,30.02,West,270,3.2,4.6,89,0.00,,OVC,0.00,WeatherDisplay:10.37,2013-02-25 01:24:00,
2013-02-24 20:29:00,30.6,27.5,30.02,WNW,292,3.5,4.7,88,0.00,,OVC,0.00,WeatherDisplay:10.37,2013-02-25 01:29:00,
2013-02-24 20:34:00,30.4,27.5,30.02,West,270,4.9,5.8,89,0.00,,OVC,0.00,WeatherDisplay:10.37,2013-02-25 01:34:00,
2013-02-24 20:39:00,30.4,27.5,30.02,West,270,3.6,4.6,89,0.00,,OVC,0.00,WeatherDisplay:10.37,2013-02-25 01:39:00,
2013-02-24 20:44:00,30.6,27.5,30.02,West,270,4.6,6.8,88,0.00,,OVC,0.00,WeatherDisplay:10.37,2013-02-25 01:44:00,
2013-02-24 20:49:00,30.4,27.5,30.02,West,270,4.2,5.8,89,0.00,,OVC,0.00,WeatherDisplay:10.37,2013-02-25 01:49:00,
2013-02-24 20:54:00,30.4,27.5,30.02,West,270,3.8,4.6,89,0.00,,OVC,0.00,WeatherDisplay:10.37,2013-02-25 01:54:00,
2013-02-24 20:59:00,30.0,26.9,30.03,West,270,2.8,3.5,88,0.00,,OVC,0.00,WeatherDisplay:10.37,2013-02-25 01:59:00,
2013-02-24 21:04:00,30.0,27.2,30.03,West,270,5.3,5.8,89,0.00,,OVC,0.00,WeatherDisplay:10.37,2013-02-25 02:04:00,
2013-02-24 21:09:00,29.8,26.7,30.03,WNW,292,2.7,2.7,88,0.00,,OVC,0.00,WeatherDisplay:10.37,2013-02-25 02:09:00,
2013-02-24 21:14:00,29.5,26.4,30.03,WNW,292,3.9,4.6,88,0.00,,OVC,0.00,WeatherDisplay:10.37,2013-02-25 02:14:00,
2013-02-24 21:19:00,29.3,26.5,30.03,WNW,292,2.8,3.5,89,0.00,,OVC,0.00,WeatherDisplay:10.37,2013-02-25 02:19:00,
2013-02-24 21:24:00,29.1,26.3,30.03,West,270,4.6,5.8,89,0.00,,OVC,0.00,WeatherDisplay:10.37,2013-02-25 02:24:00,
2013-02-24 21:29:00,29.3,26.7,30.03,West,270,2.7,4.6,90,0.00,,OVC,0.00,WeatherDisplay:10.37,2013-02-25 02:29:00,
2013-02-24 21:34:00,29.5,26.9,30.03,WNW,292,2.7,2.7,90,0.00,,OVC,0.00,WeatherDisplay:10.37,2013-02-25 02:34:00,
2013-02-24 21:39:00,29.7,27.1,30.03,NNE,22,2.8,3.5,90,0.00,,OVC,0.00,WeatherDisplay:10.37,2013-02-25 02:39:00,
2013-02-24 21:44:00,29.7,27.1,30.03,South,180,2.0,2.3,90,0.00,,OVC,0.00,WeatherDisplay:10.37,2013-02-25 02:44:00,
2013-02-24 21:49:00,30.0,27.4,30.03,South,180,2.1,2.3,90,0.00,,OVC,0.00,WeatherDisplay:10.37,2013-02-25 02:49:00,
2013-02-24 21:54:00,30.2,27.3,30.03,South,180,2.7,3.5,89,0.00,,OVC,0.00,WeatherDisplay:10.37,2013-02-25 02:54:00,
2013-02-24 21:59:00,30.2,27.3,30.03,South,180,3.7,3.7,89,0.00,,OVC,0.00,WeatherDisplay:10.37,2013-02-25 02:59:00,
2013-02-24 22:04:00,30.4,27.8,30.03,West,270,3.6,4.6,90,0.00,,OVC,0.00,WeatherDisplay:10.37,2013-02-25 03:04:00,
2013-02-24 22:09:00,30.6,28.0,30.03,NW,315,3.8,4.6,90,0.00,,OVC,0.00,WeatherDisplay:10.37,2013-02-25 03:09:00,
2013-02-24 22:14:00,30.7,28.1,30.02,South,180,2.1,2.3,90,0.00,,OVC,0.00,WeatherDisplay:10.37,2013-02-25 03:14:00,
2013-02-24 22:19:00,30.6,28.3,30.02,West,270,4.0,4.6,91,0.00,,OVC,0.00,WeatherDisplay:10.37,2013-02-25 03:19:00,
2013-02-24 22:24:00,30.6,28.3,30.02,South,180,4.2,5.8,91,0.00,,OVC,0.00,WeatherDisplay:10.37,2013-02-25 03:24:00,
2013-02-24 22:29:00,30.7,28.4,30.02,WNW,292,5.3,6.3,91,0.00,,OVC,0.00,WeatherDisplay:10.37,2013-02-25 03:29:00,
2013-02-24 22:34:00,30.7,28.7,30.02,West,270,4.2,6.9,92,0.00,,OVC,0.00,WeatherDisplay:10.37,2013-02-25 03:34:00,
2013-02-24 22:39:00,30.7,28.4,30.02,West,270,3.8,4.6,91,0.00,,OVC,0.00,WeatherDisplay:10.37,2013-02-25 03:39:00,
2013-02-24 22:44:00,30.7,28.7,30.02,NW,315,3.5,5.8,92,0.00,,OVC,0.00,WeatherDisplay:10.37,2013-02-25 03:44:00,
2013-02-24 22:49:00,30.9,28.3,30.02,West,270,4.8,5.8,90,0.00,,OVC,0.00,WeatherDisplay:10.37,2013-02-25 03:49:00,
2013-02-24 22:54:00,30.9,28.9,30.02,West,270,3.0,3.7,92,0.00,,OVC,0.00,WeatherDisplay:10.37,2013-02-25 03:54:00,
2013-02-24 22:59:00,30.9,28.9,30.02,West,270,5.3,6.9,92,0.00,,OVC,0.00,WeatherDisplay:10.37,2013-02-25 03:59:00,
2013-02-24 23:04:00,31.1,28.8,30.02,West,270,4.4,6.9,91,0.00,,OVC,0.00,WeatherDisplay:10.37,2013-02-25 04:04:00,
2013-02-24 23:09:00,31.3,29.0,30.02,West,270,6.0,6.0,91,0.00,,OVC,0.00,WeatherDisplay:10.37,2013-02-25 04:09:00,
2013-02-24 23:14:00,31.1,28.8,30.02,NW,315,4.7,6.9,91,0.00,,OVC,0.00,WeatherDisplay:10.37,2013-02-25 04:14:00,
2013-02-24 23:19:00,31.3,28.7,30.02,West,270,3.8,5.8,90,0.00,,OVC,0.00,WeatherDisplay:10.37,2013-02-25 04:19:00,
2013-02-24 23:24:00,31.3,29.2,30.02,West,270,3.9,5.8,92,0.00,,OVC,0.00,WeatherDisplay:10.37,2013-02-25 04:24:00,
2013-02-24 23:29:00,31.3,29.0,30.02,WNW,292,2.7,3.5,91,0.00,,OVC,0.00,WeatherDisplay:10.37,2013-02-25 04:29:00,
2013-02-24 23:34:00,31.1,29.0,30.02,NW,315,4.4,6.9,92,0.00,,OVC,0.00,WeatherDisplay:10.37,2013-02-25 04:34:00,
2013-02-24 23:39:00,31.1,29.0,30.02,West,270,3.8,4.6,92,0.00,,OVC,0.00,WeatherDisplay:10.37,2013-02-25 04:39:00,
2013-02-24 23:44:00,31.1,29.3,30.02,West,270,4.0,5.8,93,0.00,,OVC,0.00,WeatherDisplay:10.37,2013-02-25 04:44:00,
2013-02-24 23:49:00,31.1,29.3,30.03,West,270,2.7,5.8,93,0.00,,OVC,0.00,WeatherDisplay:10.37,2013-02-25 04:49:00,
2013-02-24 23:54:00,31.1,29.0,30.03,West,270,4.8,5.8,92,0.00,,OVC,0.00,WeatherDisplay:10.37,2013-02-25 04:54:00,
2013-02-24 23:59:00,31.1,29.0,30.03,WNW,292,4.8,5.8,92,0.00,,OVC,0.00,WeatherDisplay:10.37,2013-02-25 04:59:00,